createdAt,value
2023-04-19T00:01:23.347Z,21.23
2023-04-19T00:03:52.669Z,21.17
2023-04-19T00:06:21.992Z,19.73
2023-04-19T00:08:52.299Z,21.00
2023-04-19T00:11:21.460Z,20.23
2023-04-19T00:13:50.411Z,20.63
2023-04-19T00:16:19.409Z,22.38
2023-04-19T00:18:48.618Z,21.02
2023-04-19T00:21:17.881Z,20.85
2023-04-19T00:23:47.024Z,24.88
2023-04-19T00:26:17.319Z,21.40
2023-04-19T00:28:51.714Z,22.88
2023-04-19T00:31:20.823Z,24.00
2023-04-19T00:33:49.800Z,22.27
2023-04-19T00:36:18.712Z,23.17
2023-04-19T00:38:49.316Z,26.73
2023-04-19T00:41:19.948Z,23.23
2023-04-19T00:43:48.985Z,25.20
2023-04-19T00:46:18.540Z,22.67
2023-04-19T00:48:47.787Z,24.23
2023-04-19T00:51:16.942Z,24.05
2023-04-19T00:53:46.357Z,22.27
2023-04-19T00:56:15.792Z,23.52
2023-04-19T00:58:46.649Z,26.15
2023-04-19T01:01:16.316Z,28.20
2023-04-19T01:03:46.003Z,25.73
2023-04-19T01:06:15.278Z,27.02
2023-04-19T01:08:44.443Z,25.83
2023-04-19T01:11:13.498Z,27.20
2023-04-19T01:13:42.598Z,26.30
2023-04-19T01:16:13.609Z,28.40
2023-04-19T01:18:42.816Z,27.50
2023-04-19T01:21:12.831Z,28.08
2023-04-19T01:23:43.340Z,26.08
2023-04-19T01:26:12.806Z,28.20
2023-04-19T01:28:42.117Z,27.38
2023-04-19T01:31:11.814Z,27.17
2023-04-19T01:33:40.936Z,26.33
2023-04-19T01:36:13.084Z,29.27
2023-04-19T01:38:47.755Z,27.30
2023-04-19T01:41:17.006Z,27.45
2023-04-19T01:43:46.174Z,27.05
2023-04-19T01:46:15.316Z,28.15
2023-04-19T01:48:44.464Z,28.55
2023-04-19T01:51:13.548Z,28.95
2023-04-19T01:53:42.454Z,27.85
2023-04-19T01:56:13.528Z,27.65
2023-04-19T01:58:42.407Z,27.60
2023-04-19T02:01:12.896Z,28.75
2023-04-19T02:03:42.315Z,27.75
2023-04-19T02:06:13.554Z,28.80
2023-04-19T02:08:43.942Z,28.80
2023-04-19T02:11:15.627Z,29.92
2023-04-19T02:13:44.949Z,28.58
2023-04-19T02:16:13.926Z,28.63
2023-04-19T02:18:42.842Z,28.35
2023-04-19T02:21:12.584Z,28.77
2023-04-19T02:23:41.984Z,28.73
2023-04-19T02:26:13.025Z,28.05
2023-04-19T02:28:46.604Z,31.50
2023-04-19T02:31:15.672Z,30.20
2023-04-19T02:33:46.763Z,33.13
2023-04-19T02:36:15.858Z,30.83
2023-04-19T02:38:45.148Z,30.42
2023-04-19T02:41:15.763Z,31.25
2023-04-19T02:43:45.036Z,29.52
2023-04-19T02:46:16.788Z,30.08
2023-04-19T02:48:46.432Z,28.48
2023-04-19T02:51:17.510Z,31.38
2023-04-19T02:53:47.297Z,30.08
2023-04-19T02:56:17.168Z,31.85
2023-04-19T02:58:46.584Z,30.92
2023-04-19T03:01:17.249Z,31.25
2023-04-19T03:03:46.893Z,30.58
2023-04-19T03:06:16.972Z,31.20
2023-04-19T03:08:46.121Z,31.40
2023-04-19T03:11:17.428Z,31.88
2023-04-19T03:13:46.660Z,31.42
2023-04-19T03:16:18.187Z,33.80
2023-04-19T03:18:49.317Z,34.35
2023-04-19T03:21:21.267Z,31.85
2023-04-19T03:23:54.969Z,34.60
2023-04-19T03:26:25.019Z,34.08
2023-04-19T03:28:56.108Z,35.00
2023-04-19T03:31:36.870Z,32.78
2023-04-19T03:34:06.426Z,36.63
2023-04-19T03:36:41.796Z,32.85
2023-04-19T03:39:10.795Z,35.30
2023-04-19T03:41:42.669Z,34.33
2023-04-19T03:44:37.559Z,33.75
2023-04-19T03:47:10.386Z,34.65
2023-04-19T03:49:45.053Z,35.55
2023-04-19T03:52:15.217Z,37.55
2023-04-19T03:54:44.479Z,34.53
2023-04-19T03:57:26.269Z,35.42
2023-04-19T03:59:56.736Z,36.47
2023-04-19T04:02:27.451Z,37.40
2023-04-19T04:04:56.946Z,36.58
2023-04-19T04:07:26.885Z,37.78
2023-04-19T04:09:56.512Z,38.85
2023-04-19T04:12:25.879Z,38.00
2023-04-19T04:14:56.678Z,36.90
2023-04-19T04:17:27.222Z,38.55
2023-04-19T04:19:56.190Z,42.03
2023-04-19T04:22:28.328Z,39.33
2023-04-19T04:24:58.181Z,41.50
2023-04-19T04:27:33.526Z,38.67
2023-04-19T04:30:03.951Z,41.58
2023-04-19T04:32:35.868Z,43.15
2023-04-19T04:35:05.870Z,40.47
2023-04-19T04:37:46.439Z,39.15
2023-04-19T04:40:16.709Z,40.30
2023-04-19T04:42:46.465Z,39.25
2023-04-19T04:45:18.277Z,42.40
2023-04-19T04:47:49.891Z,41.78
2023-04-19T04:50:19.381Z,42.03
2023-04-19T04:52:51.878Z,38.58
2023-04-19T04:55:27.019Z,38.88
2023-04-19T04:57:56.634Z,42.03
2023-04-19T05:00:34.417Z,41.08
2023-04-19T05:03:08.297Z,40.25
2023-04-19T05:05:44.352Z,42.58
2023-04-19T05:08:14.391Z,42.70
2023-04-19T05:10:43.996Z,41.58
2023-04-19T05:13:15.062Z,40.45
2023-04-19T05:15:44.366Z,39.75
2023-04-19T05:18:15.135Z,42.72
2023-04-19T05:20:46.771Z,40.45
2023-04-19T05:23:23.249Z,37.15
2023-04-19T05:25:53.948Z,34.63
2023-04-19T05:31:02.623Z,36.70
2023-04-19T05:33:38.125Z,33.00
2023-04-19T05:36:07.742Z,32.03
2023-04-19T05:38:36.769Z,30.15
2023-04-19T05:41:05.928Z,33.58
2023-04-19T05:43:34.808Z,31.65
2023-04-19T05:46:04.397Z,33.22
2023-04-19T05:48:33.611Z,35.88
2023-04-19T05:51:23.523Z,35.88
2023-04-19T05:53:59.288Z,32.70
2023-04-19T05:56:28.568Z,33.38
2023-04-19T05:58:58.383Z,29.02
2023-04-19T06:01:27.564Z,32.58
2023-04-19T06:03:57.543Z,34.63
2023-04-19T06:06:28.768Z,27.75
2023-04-19T06:08:57.872Z,29.88
2023-04-19T06:11:38.456Z,29.92
2023-04-19T06:14:12.433Z,27.77
2023-04-19T06:16:41.781Z,28.83
2023-04-19T06:19:10.763Z,30.67
2023-04-19T06:21:41.194Z,29.48
2023-04-19T06:24:10.265Z,29.65
2023-04-19T06:26:39.271Z,30.33
2023-04-19T06:29:08.230Z,28.35
2023-04-19T06:31:37.312Z,30.67
2023-04-19T06:34:06.261Z,26.65
2023-04-19T06:36:35.306Z,26.98
2023-04-19T06:39:05.702Z,26.85
2023-04-19T06:41:34.825Z,25.27
2023-04-19T06:44:03.887Z,22.92
2023-04-19T06:46:33.792Z,26.08
2023-04-19T06:49:02.960Z,26.65
2023-04-19T06:51:32.301Z,24.23
2023-04-19T06:54:01.390Z,24.50
2023-04-19T06:56:45.729Z,24.63
2023-04-19T06:59:15.026Z,25.88
2023-04-19T07:01:44.250Z,25.35
2023-04-19T07:04:13.583Z,27.45
2023-04-19T07:06:42.768Z,25.35
2023-04-19T07:09:11.710Z,19.63
2023-04-19T07:11:40.720Z,26.38
2023-04-19T07:14:11.679Z,23.80
2023-04-19T07:16:40.946Z,21.10
2023-04-19T07:19:09.954Z,20.73
2023-04-19T07:21:39.610Z,23.40
2023-04-19T07:24:08.972Z,22.27
2023-04-19T07:26:37.930Z,22.77
2023-04-19T07:29:06.974Z,23.58
2023-04-19T07:31:37.261Z,21.52
2023-04-19T07:34:06.554Z,21.55
2023-04-19T07:36:37.128Z,23.85
2023-04-19T07:39:06.466Z,21.13
2023-04-19T07:41:36.297Z,16.55
2023-04-19T07:44:06.885Z,22.60
2023-04-19T07:46:37.572Z,20.73
2023-04-19T07:49:06.884Z,20.58
2023-04-19T07:51:36.120Z,20.88
2023-04-19T07:54:05.363Z,20.60
2023-04-19T07:56:35.078Z,18.70
2023-04-19T07:59:09.023Z,16.38
2023-04-19T08:01:40.418Z,21.67
2023-04-19T08:04:10.304Z,17.88
2023-04-19T08:06:40.769Z,16.73
2023-04-19T08:09:09.758Z,19.30
2023-04-19T08:11:38.779Z,21.38
2023-04-19T08:14:15.130Z,21.38
2023-04-19T08:19:20.763Z,21.30
2023-04-19T08:21:49.640Z,19.17
2023-04-19T08:24:18.726Z,18.35
2023-04-19T08:26:53.953Z,16.90
2023-04-19T08:29:23.428Z,20.27
2023-04-19T08:31:54.377Z,18.15
2023-04-19T08:34:23.450Z,20.35
2023-04-19T08:37:03.294Z,18.45
2023-04-19T08:39:34.616Z,18.67
2023-04-19T08:42:15.533Z,16.15
2023-04-19T08:45:23.178Z,20.05
2023-04-19T08:48:00.928Z,17.02
2023-04-19T08:50:40.692Z,16.75
2023-04-19T08:53:25.547Z,17.92
2023-04-19T09:01:06.282Z,18.13
2023-04-19T09:03:51.187Z,15.15
2023-04-19T09:06:27.409Z,14.60
2023-04-19T09:11:47.992Z,12.82
2023-04-19T09:14:18.529Z,17.05
2023-04-19T09:16:47.932Z,16.33
2023-04-19T09:19:23.941Z,17.77
2023-04-19T09:21:54.994Z,19.48
2023-04-19T09:27:12.186Z,17.60
2023-04-19T09:29:41.398Z,17.35
2023-04-19T09:32:10.420Z,18.15
2023-04-19T09:34:52.904Z,16.00
2023-04-19T09:39:57.068Z,17.00
2023-04-19T09:42:47.421Z,18.48
2023-04-19T09:47:47.725Z,16.38
2023-04-19T09:50:23.905Z,18.38
2023-04-19T09:52:55.835Z,16.08
2023-04-19T09:55:28.150Z,17.80
2023-04-19T09:57:58.153Z,16.70
2023-04-19T10:00:29.812Z,16.63
2023-04-19T10:03:06.422Z,15.77
2023-04-19T10:05:38.629Z,15.65
2023-04-19T10:08:09.380Z,18.13
2023-04-19T10:10:41.873Z,18.63
2023-04-19T10:15:52.053Z,15.68
2023-04-19T10:18:23.031Z,15.82
2023-04-19T10:20:54.987Z,13.07
2023-04-19T10:23:24.287Z,16.58
2023-04-19T10:25:57.509Z,17.05
2023-04-19T10:28:26.910Z,17.15
2023-04-19T10:30:56.710Z,15.30
2023-04-19T10:33:29.580Z,16.85
2023-04-19T10:36:01.212Z,15.88
2023-04-19T10:38:48.955Z,16.70
2023-04-19T10:41:19.072Z,16.17
2023-04-19T10:43:49.198Z,15.70
2023-04-19T10:46:19.271Z,16.58
2023-04-19T10:48:55.613Z,14.88
2023-04-19T10:51:29.003Z,15.75
2023-04-19T10:53:59.064Z,15.38
2023-04-19T10:56:59.416Z,13.63
2023-04-19T10:59:28.655Z,15.05
2023-04-19T11:01:58.572Z,14.25
2023-04-19T11:04:47.741Z,10.57
2023-04-19T11:07:20.198Z,16.73
2023-04-19T11:09:51.068Z,14.50
2023-04-19T11:12:20.719Z,12.38
2023-04-19T11:14:50.364Z,15.05
2023-04-19T11:17:20.625Z,14.05
2023-04-19T11:19:55.116Z,14.85
2023-04-19T11:22:32.720Z,12.20
2023-04-19T11:25:11.926Z,11.90
2023-04-19T11:27:41.127Z,15.10
2023-04-19T11:30:11.682Z,12.07
2023-04-19T11:32:46.393Z,12.55
2023-04-19T11:35:15.422Z,13.45
2023-04-19T11:37:45.937Z,13.45
2023-04-19T11:40:17.269Z,13.43
2023-04-19T11:42:47.396Z,16.35
2023-04-19T11:45:30.162Z,14.55
2023-04-19T11:48:15.626Z,11.85
2023-04-19T11:50:45.563Z,13.73
2023-04-19T11:53:17.447Z,14.35
2023-04-19T11:58:25.256Z,14.30
2023-04-19T12:00:54.205Z,15.57
2023-04-19T12:03:26.133Z,14.68
2023-04-19T12:05:57.281Z,13.82
2023-04-19T12:08:34.105Z,15.13
2023-04-19T12:11:03.605Z,14.88
2023-04-19T12:13:32.910Z,14.55
2023-04-19T12:16:02.599Z,14.10
2023-04-19T12:18:44.646Z,13.35
2023-04-19T12:21:14.155Z,13.77
2023-04-19T12:23:44.836Z,13.48
2023-04-19T12:26:13.799Z,11.50
2023-04-19T12:28:42.738Z,12.73
2023-04-19T12:31:11.717Z,14.27
2023-04-19T12:33:41.227Z,13.25
2023-04-19T12:36:10.646Z,14.77
2023-04-19T12:38:40.021Z,11.75
2023-04-19T12:41:10.465Z,13.27
2023-04-19T12:43:39.412Z,12.82
2023-04-19T12:46:08.394Z,12.57
2023-04-19T12:48:37.295Z,11.38
2023-04-19T12:51:06.401Z,11.88
2023-04-19T12:53:35.331Z,13.10
2023-04-19T12:56:04.268Z,11.95
2023-04-19T12:58:34.920Z,11.75
2023-04-19T13:01:03.895Z,12.38
2023-04-19T13:03:36.450Z,12.55
2023-04-19T13:06:05.589Z,13.07
2023-04-19T13:08:44.773Z,11.38
2023-04-19T13:11:17.808Z,10.85
2023-04-19T13:13:48.193Z,12.95
2023-04-19T13:16:17.257Z,10.45
2023-04-19T13:18:46.635Z,12.10
2023-04-19T13:21:15.616Z,9.55
2023-04-19T13:23:45.362Z,12.07
2023-04-19T13:26:14.444Z,12.02
2023-04-19T13:28:43.842Z,13.00
2023-04-19T13:31:14.303Z,11.35
2023-04-19T13:33:43.339Z,12.75
2023-04-19T13:36:12.375Z,14.30
2023-04-19T13:38:41.494Z,15.50
2023-04-19T13:41:11.611Z,14.98
2023-04-19T13:43:40.759Z,12.77
2023-04-19T13:46:09.691Z,12.65
2023-04-19T13:48:40.014Z,13.80
2023-04-19T13:51:09.241Z,13.70
2023-04-19T13:53:38.180Z,14.30
2023-04-19T13:56:09.310Z,13.43
2023-04-19T13:58:38.269Z,12.90
2023-04-19T14:01:07.531Z,11.00
2023-04-19T14:03:36.774Z,12.10
2023-04-19T14:06:07.489Z,13.43
2023-04-19T14:08:36.442Z,13.73
2023-04-19T14:11:06.192Z,11.77
2023-04-19T14:13:35.216Z,11.02
2023-04-19T14:16:04.421Z,9.07
2023-04-19T14:18:33.359Z,10.27
2023-04-19T14:21:02.265Z,9.88
2023-04-19T14:23:32.513Z,10.32
2023-04-19T14:26:01.988Z,11.20
2023-04-19T14:28:31.174Z,10.13
2023-04-19T14:31:00.265Z,10.98
2023-04-19T14:33:29.521Z,11.30
2023-04-19T14:35:58.624Z,10.65
2023-04-19T14:38:27.561Z,9.35
2023-04-19T14:40:58.521Z,11.70
2023-04-19T14:43:27.617Z,11.63
2023-04-19T14:45:56.575Z,12.68
2023-04-19T14:48:26.380Z,10.60
2023-04-19T14:50:55.403Z,12.55
2023-04-19T14:53:24.517Z,10.85
2023-04-19T14:55:53.475Z,10.73
2023-04-19T14:58:23.787Z,11.32
2023-04-19T15:00:54.131Z,11.55
2023-04-19T15:03:23.333Z,10.77
2023-04-19T15:05:52.567Z,9.43
2023-04-19T15:08:30.223Z,9.57
2023-04-19T15:10:59.899Z,11.45
2023-04-19T15:13:30.739Z,10.52
2023-04-19T15:16:02.504Z,9.55
2023-04-19T15:18:32.287Z,9.15
2023-04-19T15:21:03.161Z,9.63
2023-04-19T15:23:32.392Z,8.00
2023-04-19T15:26:01.584Z,9.45
2023-04-19T15:28:36.193Z,9.95
2023-04-19T15:31:06.215Z,9.60
2023-04-19T15:33:38.283Z,9.40
2023-04-19T15:36:07.470Z,9.55
2023-04-19T15:38:36.630Z,8.88
2023-04-19T15:41:05.980Z,10.43
2023-04-19T15:43:36.496Z,10.35
2023-04-19T15:46:05.824Z,9.68
2023-04-19T15:48:35.063Z,9.18
2023-04-19T15:51:04.890Z,8.73
2023-04-19T15:53:34.015Z,10.48
2023-04-19T15:56:03.195Z,9.68
2023-04-19T15:58:32.419Z,9.05
2023-04-19T16:01:03.561Z,9.30
2023-04-19T16:03:32.805Z,9.45
2023-04-19T16:06:02.366Z,9.00
2023-04-19T16:08:31.586Z,9.48
2023-04-19T16:11:00.756Z,8.98
2023-04-19T16:13:31.446Z,7.97
2023-04-19T16:16:01.078Z,7.50
2023-04-19T16:18:31.847Z,9.45
2023-04-19T16:21:00.905Z,8.73
2023-04-19T16:23:32.022Z,9.00
2023-04-19T16:26:01.132Z,10.45
2023-04-19T16:28:30.411Z,8.05
2023-04-19T16:30:59.461Z,9.38
2023-04-19T16:33:28.750Z,6.60
2023-04-19T16:35:59.180Z,9.63
2023-04-19T16:38:28.236Z,8.75
2023-04-19T16:40:57.211Z,9.80
2023-04-19T16:43:26.383Z,9.38
2023-04-19T16:45:55.329Z,9.40
2023-04-19T16:48:24.496Z,9.32
2023-04-19T16:50:53.663Z,7.95
2023-04-19T16:53:24.034Z,9.75
2023-04-19T16:55:54.433Z,7.53
2023-04-19T16:58:24.655Z,8.45
2023-04-19T17:00:54.209Z,7.82
2023-04-19T17:03:24.592Z,8.75
2023-04-19T17:05:53.632Z,9.55
2023-04-19T17:08:24.329Z,7.22
2023-04-19T17:10:54.181Z,7.22
2023-04-19T17:13:23.272Z,7.60
2023-04-19T17:15:52.412Z,7.57
2023-04-19T17:18:22.179Z,8.23
2023-04-19T17:20:51.385Z,8.98
2023-04-19T17:23:21.361Z,8.88
2023-04-19T17:25:51.660Z,8.65
2023-04-19T17:28:20.705Z,9.70
2023-04-19T17:30:49.660Z,8.13
2023-04-19T17:33:18.589Z,8.80
2023-04-19T17:35:47.614Z,10.38
2023-04-19T17:38:16.693Z,8.55
2023-04-19T17:40:46.083Z,9.77
2023-04-19T17:43:16.688Z,7.97
2023-04-19T17:45:46.088Z,7.47
2023-04-19T17:48:15.276Z,7.88
2023-04-19T17:50:44.330Z,6.43
2023-04-19T17:53:13.585Z,6.78
2023-04-19T17:55:42.532Z,8.38
2023-04-19T17:58:11.536Z,9.30
2023-04-19T18:00:42.193Z,7.28
2023-04-19T18:03:11.575Z,8.30
2023-04-19T18:05:40.896Z,9.63
2023-04-19T18:08:10.002Z,7.43
2023-04-19T18:10:39.410Z,8.57
2023-04-19T18:13:08.319Z,10.38
2023-04-19T18:15:37.344Z,10.45
2023-04-19T18:18:07.922Z,12.02
2023-04-19T18:20:37.244Z,9.90
2023-04-19T18:23:06.365Z,9.38
2023-04-19T18:25:36.974Z,8.73
2023-04-19T18:28:06.504Z,9.93
2023-04-19T18:30:35.909Z,11.23
2023-04-19T18:33:05.078Z,9.75
2023-04-19T18:35:37.005Z,10.15
2023-04-19T18:38:06.182Z,8.88
2023-04-19T18:40:35.418Z,8.48
2023-04-19T18:43:04.465Z,10.80
2023-04-19T18:45:33.543Z,11.02
2023-04-19T18:48:03.560Z,9.52
2023-04-19T18:50:34.072Z,8.73
2023-04-19T18:53:05.234Z,8.30
2023-04-19T18:55:34.570Z,11.55
2023-04-19T18:58:03.476Z,9.77
2023-04-19T19:00:32.390Z,10.25
2023-04-19T19:03:03.409Z,8.70
2023-04-19T19:05:33.251Z,8.80
2023-04-19T19:08:02.590Z,9.90
2023-04-19T19:10:58.796Z,8.25
2023-04-19T19:13:21.871Z,8.52
2023-04-19T19:15:50.896Z,8.40
2023-04-19T19:18:20.317Z,9.32
2023-04-19T19:20:51.529Z,12.43
2023-04-19T19:23:32.202Z,11.55
2023-04-19T19:26:06.021Z,9.10
2023-04-19T19:28:34.927Z,9.80
2023-04-19T19:31:04.098Z,8.00
2023-04-19T19:33:33.432Z,9.73
2023-04-19T19:36:02.357Z,9.00
2023-04-19T19:38:31.409Z,9.98
2023-04-19T19:41:41.731Z,9.73
2023-04-19T19:43:50.872Z,8.48
2023-04-19T19:46:22.531Z,9.88
2023-04-19T19:48:53.725Z,9.60
2023-04-19T19:51:52.419Z,7.82
2023-04-19T19:54:12.277Z,8.55
2023-04-19T19:57:00.629Z,9.65
2023-04-19T19:59:34.958Z,9.55
2023-04-19T20:02:04.791Z,10.68
2023-04-19T20:04:35.005Z,9.43
2023-04-19T20:09:36.352Z,9.30
2023-04-19T20:12:05.576Z,8.25
2023-04-19T20:14:37.761Z,9.52
2023-04-19T20:17:07.537Z,10.00
2023-04-19T20:19:37.448Z,9.98
2023-04-19T20:22:06.452Z,10.50
2023-04-19T20:24:35.364Z,12.88
2023-04-19T20:27:04.379Z,9.85
2023-04-19T20:29:33.350Z,8.52
2023-04-19T20:32:03.739Z,8.80
2023-04-19T20:34:32.861Z,8.20
2023-04-19T20:37:04.005Z,8.93
2023-04-19T20:39:33.114Z,9.65
2023-04-19T20:42:02.102Z,9.20
2023-04-19T20:44:31.194Z,8.50
2023-04-19T20:47:00.124Z,9.15
2023-04-19T20:49:30.446Z,9.45
2023-04-19T20:51:59.365Z,8.15
2023-04-19T20:54:28.309Z,8.77
2023-04-19T20:57:04.491Z,9.82
2023-04-19T20:59:34.174Z,10.85
2023-04-19T21:02:03.346Z,9.38
2023-04-19T21:04:34.290Z,9.35
2023-04-19T21:07:03.568Z,11.27
2023-04-19T21:09:32.661Z,9.55
2023-04-19T21:12:02.179Z,8.80
2023-04-19T21:14:35.541Z,10.18
2023-04-19T21:17:04.900Z,9.25
2023-04-19T21:19:35.256Z,9.75
2023-04-19T21:22:04.430Z,8.55
2023-04-19T21:24:33.576Z,8.50
2023-04-19T21:27:02.579Z,8.77
2023-04-19T21:29:31.520Z,13.35
2023-04-19T21:32:00.641Z,10.30
2023-04-19T21:34:29.614Z,10.20
2023-04-19T21:37:00.054Z,9.63
2023-04-19T21:39:29.007Z,11.40
2023-04-19T21:41:58.296Z,11.27
2023-04-19T21:44:28.041Z,9.77
2023-04-19T21:46:57.059Z,10.18
2023-04-19T21:49:26.365Z,9.77
2023-04-19T21:51:56.868Z,9.20
2023-04-19T21:54:33.970Z,7.50
2023-04-19T21:57:04.172Z,9.57
2023-04-19T21:59:36.249Z,9.60
2023-04-19T22:02:06.403Z,9.95
2023-04-19T22:04:47.896Z,9.05
2023-04-19T22:07:18.320Z,8.75
2023-04-19T22:09:51.646Z,10.43
2023-04-19T22:12:20.821Z,9.35
2023-04-19T22:14:51.177Z,8.38
2023-04-19T22:17:20.966Z,9.60
2023-04-19T22:19:51.611Z,8.90
2023-04-19T22:22:20.648Z,9.23
2023-04-19T22:24:56.815Z,7.00
2023-04-19T22:27:27.687Z,6.68
2023-04-19T22:29:58.776Z,7.57
2023-04-19T22:32:27.807Z,8.53
2023-04-19T22:34:57.003Z,8.23
2023-04-19T22:37:26.060Z,6.55
2023-04-19T22:39:56.858Z,9.43
2023-04-19T22:42:26.085Z,9.35
2023-04-19T22:44:55.396Z,10.85
2023-04-19T22:47:24.397Z,10.27
2023-04-19T22:49:53.547Z,8.75
2023-04-19T22:52:22.953Z,8.60
2023-04-19T22:54:52.162Z,7.97
2023-04-19T22:57:22.685Z,9.85
2023-04-19T22:59:51.980Z,7.95
2023-04-19T23:02:21.826Z,8.95
2023-04-19T23:04:51.124Z,8.90
2023-04-19T23:07:22.172Z,8.10
2023-04-19T23:09:52.352Z,8.50
2023-04-19T23:12:22.928Z,8.80
2023-04-19T23:14:52.290Z,8.93
2023-04-19T23:17:21.301Z,7.90
2023-04-19T23:19:50.499Z,9.25
2023-04-19T23:22:19.422Z,8.43
2023-04-19T23:24:48.496Z,8.00
2023-04-19T23:27:17.444Z,10.10
2023-04-19T23:29:47.773Z,8.50
2023-04-19T23:32:18.131Z,8.70
2023-04-19T23:34:47.130Z,8.23
2023-04-19T23:37:16.145Z,9.13
2023-04-19T23:39:45.030Z,8.20
2023-04-19T23:42:13.900Z,10.13
2023-04-19T23:44:43.983Z,9.25
2023-04-19T23:47:14.427Z,6.55
2023-04-19T23:49:43.372Z,8.70
2023-04-19T23:52:12.548Z,8.75
2023-04-19T23:54:41.566Z,8.30
2023-04-19T23:57:10.758Z,8.15
2023-04-19T23:59:39.773Z,8.07
